Time;durP1;ratioP1;P1;durP2;ratioP2;P2;SDS_P1;SDS_P2;PMS_P1;PMS_P2;Temp;Humidity;BMP_temperature;BMP_pressure;BME280_temperature;BME280_humidity;BME280_pressure;Samples;Min_cycle;Max_cycle;Signal;HPM_P1;HPM_P2
2023/03/28 00:00:35;;;;;;;5.07;3.90;;;;;;;0.89;79.97;102154.00;5113908;28;20649;-63
2023/03/28 00:03:01;;;;;;;8.00;3.73;;;;;;;0.82;80.42;102160.22;5113859;28;20292;-63
2023/03/28 00:05:28;;;;;;;6.73;3.53;;;;;;;0.83;80.07;102161.97;5114102;28;20609;-65
2023/03/28 00:07:55;;;;;;;4.57;3.70;;;;;;;0.76;80.90;102161.13;5113416;28;20211;-64
2023/03/28 00:10:22;;;;;;;4.13;3.57;;;;;;;0.74;81.11;102151.50;5113585;28;20189;-63
2023/03/28 00:12:49;;;;;;;3.20;3.07;;;;;;;0.65;81.34;102160.38;5115724;28;20720;-63
2023/03/28 00:15:16;;;;;;;4.67;3.93;;;;;;;0.68;81.13;102157.69;5117532;28;20246;-63
2023/03/28 00:17:42;;;;;;;6.43;4.20;;;;;;;0.56;80.55;102153.38;5117467;28;20241;-63
2023/03/28 00:20:11;;;;;;;4.27;4.00;;;;;;;0.64;80.82;102150.69;5117729;28;20204;-63
2023/03/28 00:22:38;;;;;;;10.33;3.37;;;;;;;0.63;82.02;102157.72;5117509;28;20181;-63
2023/03/28 00:25:06;;;;;;;4.23;3.93;;;;;;;0.64;80.90;102155.97;5117901;28;20192;-63
2023/03/28 00:27:34;;;;;;;11.43;4.90;;;;;;;0.59;80.92;102142.81;5117507;28;20716;-63
2023/03/28 00:30:01;;;;;;;11.80;3.87;;;;;;;0.60;82.34;102160.41;5117254;28;20216;-63
2023/03/28 00:32:27;;;;;;;7.17;3.97;;;;;;;0.58;82.40;102162.16;5098908;28;20231;-64
2023/03/28 00:34:55;;;;;;;10.93;4.33;;;;;;;0.56;82.58;102163.06;5117084;28;20709;-63
2023/03/28 00:37:22;;;;;;;17.13;4.47;;;;;;;0.62;81.99;102165.63;5117379;28;20184;-63
2023/03/28 00:39:52;;;;;;;11.50;4.70;;;;;;;0.69;82.03;102159.44;5117593;28;20272;-64
2023/03/28 00:42:22;;;;;;;8.07;5.37;;;;;;;0.69;81.45;102167.34;5117263;28;20245;-63
2023/03/28 00:44:50;;;;;;;11.73;4.23;;;;;;;0.72;82.39;102159.44;5117510;28;20554;-63
2023/03/28 00:47:40;;;;;;;5.83;3.93;;;;;;;0.72;81.38;102159.44;5116795;28;20257;-63
2023/03/28 00:50:18;;;;;;;8.73;4.60;;;;;;;0.75;81.36;102164.66;5117432;28;20177;-63
2023/03/28 00:53:15;;;;;;;4.37;4.07;;;;;;;0.73;81.42;102155.03;5117312;28;20787;-63
2023/03/28 00:55:57;;;;;;;6.03;4.07;;;;;;;0.77;81.87;102165.53;5098530;28;20289;-63
2023/03/28 00:58:29;;;;;;;4.03;3.83;;;;;;;0.73;80.95;102166.44;5117038;28;20227;-63
2023/03/28 01:00:57;;;;;;;4.67;4.43;;;;;;;0.72;82.19;102164.69;5116958;28;20260;-63
2023/03/28 01:03:29;;;;;;;4.53;4.13;;;;;;;0.70;82.23;102157.69;5098290;28;20217;-63
2023/03/28 01:05:57;;;;;;;5.67;4.03;;;;;;;0.61;81.87;102159.50;5098950;28;20181;-63
2023/03/28 01:08:36;;;;;;;4.60;4.03;;;;;;;0.64;81.43;102154.19;5098335;28;20195;-63
2023/03/28 01:11:04;;;;;;;4.50;3.93;;;;;;;0.61;82.56;102158.63;5098302;28;20280;-63
2023/03/28 01:13:36;;;;;;;5.90;3.90;;;;;;;0.59;82.13;102163.03;5098181;28;20213;-63
2023/03/28 01:16:04;;;;;;;7.37;3.87;;;;;;;0.60;81.81;102162.16;5132628;27;20731;-63
2023/03/28 01:18:33;;;;;;;4.40;4.10;;;;;;;0.57;82.62;102167.44;5098078;28;20678;-63
2023/03/28 01:21:19;;;;;;;4.27;3.97;;;;;;;0.59;82.85;102160.41;5116592;28;20185;-63
2023/03/28 01:24:07;;;;;;;11.93;4.37;;;;;;;0.53;82.14;102169.22;5097453;28;20569;-63
2023/03/28 01:26:46;;;;;;;5.83;4.63;;;;;;;0.59;82.83;102163.91;5081903;28;20212;-63
2023/03/28 01:29:19;;;;;;;12.67;4.50;;;;;;;0.57;81.43;102164.78;5097856;28;20189;-63
2023/03/28 01:32:22;;;;;;;4.60;4.20;;;;;;;0.55;83.03;102167.47;5098085;28;20196;-63
2023/03/28 01:35:21;;;;;;;5.27;4.80;;;;;;;0.56;81.73;102169.19;5082126;28;20657;-63
2023/03/28 01:38:12;;;;;;;8.20;4.63;;;;;;;0.48;83.31;102173.66;5116573;28;20225;-63
2023/03/28 01:41:06;;;;;;;6.87;4.60;;;;;;;0.42;82.00;102174.56;5098236;28;20253;-63
2023/03/28 01:43:43;;;;;;;4.57;4.27;;;;;;;0.37;81.87;102167.56;5097532;28;20208;-63
2023/03/28 01:46:18;;;;;;;4.73;4.53;;;;;;;0.35;83.45;102166.72;5097561;28;20232;-63
2023/03/28 01:48:56;;;;;;;6.40;4.83;;;;;;;0.37;83.63;102170.22;5097527;28;20189;-64
2023/03/28 01:51:40;;;;;;;5.53;5.07;;;;;;;0.38;83.78;102167.56;5097498;28;20774;-64
2023/03/28 01:54:29;;;;;;;10.47;4.70;;;;;;;0.48;82.66;102172.75;5097381;28;20622;-63
2023/03/28 01:57:05;;;;;;;10.10;5.40;;;;;;;0.39;83.51;102160.53;5115582;28;20181;-63
2023/03/28 01:59:53;;;;;;;9.10;5.03;;;;;;;0.36;82.51;102155.25;5097321;28;20185;-63
2023/03/28 02:02:35;;;;;;;7.77;4.87;;;;;;;0.37;83.78;102151.75;5115739;28;20173;-63
2023/03/28 02:05:20;;;;;;;11.43;5.60;;;;;;;0.31;84.21;102154.44;5097088;28;20192;-63
2023/03/28 02:07:48;;;;;;;8.70;4.60;;;;;;;0.25;84.30;102154.47;5097036;28;20224;-63
2023/03/28 02:10:18;;;;;;;5.73;5.33;;;;;;;0.17;84.07;102155.41;5097281;28;20554;-63
2023/03/28 02:13:13;;;;;;;4.43;4.13;;;;;;;0.08;83.02;102152.81;5097768;28;20213;-63
2023/03/28 02:15:53;;;;;;;12.63;5.00;;;;;;;0.04;84.00;102158.09;5096960;28;20222;-63
2023/03/28 02:18:42;;;;;;;21.60;5.27;;;;;;;0.09;84.05;102151.03;5115504;28;20531;-63
2023/03/28 02:21:44;;;;;;;10.67;4.93;;;;;;;0.10;83.84;102150.19;5115467;28;20243;-63
2023/03/28 02:24:27;;;;;;;11.20;6.17;;;;;;;0.15;83.79;102146.63;5097132;28;20213;-64
2023/03/28 02:27:15;;;;;;;7.17;5.50;;;;;;;0.13;84.68;102147.53;5073443;28;20251;-63
2023/03/28 02:29:57;;;;;;;9.53;5.60;;;;;;;0.11;85.39;102158.06;5096635;28;20202;-63
2023/03/28 02:32:32;;;;;;;7.30;5.83;;;;;;;0.08;85.09;102146.69;5115130;28;20177;-63
2023/03/28 02:35:03;;;;;;;7.67;5.20;;;;;;;0.04;84.44;102150.19;5114867;28;20185;-63
2023/03/28 02:37:53;;;;;;;6.03;5.40;;;;;;;0.01;84.55;102144.97;5130719;27;20241;-63
2023/03/28 02:40:30;;;;;;;6.00;5.47;;;;;;;0.01;85.05;102142.31;5096518;28;20188;-63
2023/03/28 02:43:28;;;;;;;6.80;4.77;;;;;;;-0.04;85.76;102144.97;5114840;28;20207;-64
2023/03/28 02:45:57;;;;;;;9.73;5.20;;;;;;;-0.06;85.69;102139.72;5096431;28;20193;-63
2023/03/28 02:48:47;;;;;;;7.43;6.03;;;;;;;-0.02;85.82;102144.09;5114502;28;20318;-63
2023/03/28 02:51:21;;;;;;;6.53;5.83;;;;;;;-0.03;85.05;102146.72;5106368;28;20288;-63
2023/03/28 02:54:03;;;;;;;10.23;5.90;;;;;;;-0.05;84.57;102149.38;5096163;28;20210;-63
2023/03/28 02:57:02;;;;;;;9.43;6.00;;;;;;;-0.03;85.99;102144.09;5114738;28;20256;-63
2023/03/28 02:59:44;;;;;;;6.80;6.40;;;;;;;-0.06;85.49;102138.84;5086396;28;20717;-63
2023/03/28 03:02:15;;;;;;;7.93;7.07;;;;;;;-0.11;85.90;102138.84;5114678;28;20203;-63
2023/03/28 03:04:43;;;;;;;11.27;6.33;;;;;;;-0.02;85.81;102138.81;5114243;28;20631;-63
2023/03/28 03:07:09;;;;;;;11.53;6.33;;;;;;;-0.05;85.53;102140.56;5095929;28;20237;-63
2023/03/28 03:09:36;;;;;;;12.23;7.07;;;;;;;-0.04;85.81;102137.94;5096022;28;20577;-63
2023/03/28 03:12:03;;;;;;;15.47;6.77;;;;;;;-0.07;85.39;102139.72;5114214;28;20273;-63
2023/03/28 03:14:29;;;;;;;8.00;6.77;;;;;;;-0.11;85.70;102128.31;5095866;28;20262;-63
2023/03/28 03:17:14;;;;;;;7.23;6.83;;;;;;;-0.16;86.18;102132.75;5096212;28;20202;-63
2023/03/28 03:19:42;;;;;;;8.33;6.90;;;;;;;-0.23;85.98;102144.19;5095852;28;20185;-63
2023/03/28 03:22:09;;;;;;;8.20;7.43;;;;;;;-0.26;85.75;102126.66;5114254;28;20184;-63
2023/03/28 03:24:49;;;;;;;9.07;6.83;;;;;;;-0.31;86.59;102130.16;5095822;28;20811;-63
2023/03/28 03:27:18;;;;;;;9.43;6.57;;;;;;;-0.32;86.15;102131.06;5095529;28;20251;-63
2023/03/28 03:29:45;;;;;;;11.57;7.43;;;;;;;-0.36;85.62;102135.47;5079752;28;20194;-63
2023/03/28 03:32:14;;;;;;;7.87;7.17;;;;;;;-0.35;85.81;102138.97;5095866;28;20194;-63
2023/03/28 03:34:46;;;;;;;16.67;7.10;;;;;;;-0.29;85.53;102133.66;5096363;28;20225;-63
2023/03/28 03:37:13;;;;;;;17.60;7.57;;;;;;;-0.28;86.02;102138.06;5095545;28;20179;-63
2023/03/28 03:39:39;;;;;;;10.20;8.97;;;;;;;-0.22;86.66;102143.28;5114072;28;20262;-63
2023/03/28 03:42:06;;;;;;;26.97;8.93;;;;;;;-0.26;85.84;102139.81;5095466;28;20245;-63
2023/03/28 03:44:32;;;;;;;11.27;8.03;;;;;;;-0.28;86.53;102148.59;5095427;28;20216;-63
2023/03/28 03:46:59;;;;;;;13.67;8.03;;;;;;;-0.27;86.25;102143.31;5095210;28;20230;-63
2023/03/28 03:49:27;;;;;;;16.67;8.73;;;;;;;-0.31;85.79;102140.69;5095409;28;20188;-63
2023/03/28 03:51:54;;;;;;;14.27;8.47;;;;;;;-0.33;85.97;102139.84;5095431;28;20567;-63
2023/03/28 03:54:20;;;;;;;13.57;9.93;;;;;;;-0.35;87.42;102139.84;5095288;28;20749;-63
2023/03/28 03:56:48;;;;;;;22.63;8.33;;;;;;;-0.33;87.72;102139.84;5095274;28;20191;-63
2023/03/28 03:59:15;;;;;;;19.57;8.23;;;;;;;-0.31;86.89;102151.22;5095317;28;20188;-63
2023/03/28 04:01:43;;;;;;;24.20;9.53;;;;;;;-0.32;86.68;102158.25;5095618;28;20196;-63
2023/03/28 04:04:35;;;;;;;21.77;10.30;;;;;;;-0.32;86.98;102160.00;5095313;28;20219;-63
2023/03/28 04:07:17;;;;;;;15.23;10.40;;;;;;;-0.36;87.05;102156.53;5096048;28;20216;-63
2023/03/28 04:09:46;;;;;;;24.87;10.87;;;;;;;-0.37;87.43;102172.31;5095158;28;20205;-63
2023/03/28 04:12:13;;;;;;;19.67;9.57;;;;;;;-0.39;87.89;102176.69;5095180;28;20187;-63
2023/03/28 04:14:45;;;;;;;22.40;9.37;;;;;;;-0.44;86.72;102172.31;5095192;28;20295;-63
2023/03/28 04:17:43;;;;;;;18.57;9.10;;;;;;;-0.52;88.00;102183.75;5113424;28;20191;-63
2023/03/28 04:20:16;;;;;;;17.47;9.43;;;;;;;-0.54;86.94;102181.13;5095165;28;20183;-64
2023/03/28 04:23:04;;;;;;;24.97;9.73;;;;;;;-0.58;87.60;102187.25;5113593;28;20279;-63
2023/03/28 04:25:31;;;;;;;17.57;10.07;;;;;;;-0.58;88.02;102182.00;5095891;28;20193;-63
2023/03/28 04:28:03;;;;;;;23.73;10.17;;;;;;;-0.60;87.18;102181.13;5095009;28;20316;-63
2023/03/28 04:30:35;;;;;;;16.90;10.07;;;;;;;-0.56;87.92;102189.91;5095088;28;20184;-63
2023/03/28 04:33:25;;;;;;;14.23;9.53;;;;;;;-0.52;87.63;102184.63;5112778;28;20218;-63
2023/03/28 04:36:00;;;;;;;18.97;10.53;;;;;;;-0.47;87.29;102187.25;5094929;28;20186;-63
2023/03/28 04:38:30;;;;;;;13.87;9.93;;;;;;;-0.53;87.38;102179.34;5094975;28;20240;-63
2023/03/28 04:41:09;;;;;;;16.07;9.40;;;;;;;-0.45;88.29;102185.50;5129275;28;20218;-63
2023/03/28 04:43:54;;;;;;;11.10;9.57;;;;;;;-0.49;87.85;102189.00;5113638;28;20233;-63
2023/03/28 04:46:20;;;;;;;17.07;9.70;;;;;;;-0.45;87.39;102189.00;5113668;28;20188;-63
2023/03/28 04:48:47;;;;;;;12.93;10.07;;;;;;;-0.49;87.54;102192.50;5094740;28;20216;-63
2023/03/28 04:51:23;;;;;;;27.33;10.70;;;;;;;-0.51;87.94;102186.38;5113866;28;20173;-63
2023/03/28 04:53:50;;;;;;;14.97;9.83;;;;;;;-0.56;88.00;102182.00;5094644;28;20214;-63
2023/03/28 04:56:35;;;;;;;27.43;10.77;;;;;;;-0.57;88.34;102193.41;5113624;28;20183;-64
2023/03/28 04:59:02;;;;;;;15.20;9.67;;;;;;;-0.60;88.31;102193.41;5114276;28;20182;-64
2023/03/28 05:01:29;;;;;;;22.10;9.77;;;;;;;-0.59;88.53;102192.53;5098419;28;20651;-64
2023/03/28 05:04:20;;;;;;;17.57;10.40;;;;;;;-0.59;87.62;102192.53;5116498;28;20215;-65
2023/03/28 05:06:48;;;;;;;13.83;10.23;;;;;;;-0.74;88.08;102196.94;5098499;28;20345;-65
2023/03/28 05:09:16;;;;;;;27.23;10.67;;;;;;;-0.68;88.18;102199.56;5116464;28;20288;-65
2023/03/28 05:11:43;;;;;;;15.50;9.93;;;;;;;-0.78;88.42;102207.47;5098147;28;20209;-65
2023/03/28 05:14:10;;;;;;;12.67;9.90;;;;;;;-0.85;88.07;102203.97;5098628;28;20234;-65
2023/03/28 05:16:43;;;;;;;18.37;10.03;;;;;;;-0.83;88.26;102210.09;5098356;28;20197;-65
2023/03/28 05:19:42;;;;;;;14.27;10.07;;;;;;;-0.93;88.51;102208.38;5098237;28;20659;-65
2023/03/28 05:22:13;;;;;;;9.27;8.27;;;;;;;-0.98;88.18;102203.09;5097933;28;20678;-65
2023/03/28 05:24:41;;;;;;;21.53;9.53;;;;;;;-1.07;88.23;102205.72;5097787;28;20213;-65
2023/03/28 05:27:16;;;;;;;10.73;8.33;;;;;;;-1.10;88.30;102205.72;5097579;28;20563;-65
2023/03/28 05:29:43;;;;;;;15.83;9.77;;;;;;;-1.07;88.18;102201.34;5097721;28;20672;-65
2023/03/28 05:32:11;;;;;;;18.17;10.23;;;;;;;-1.05;88.39;102213.59;5098264;28;20189;-65
2023/03/28 05:34:39;;;;;;;16.87;9.40;;;;;;;-1.03;88.53;102210.13;5131782;27;20211;-65
2023/03/28 05:37:05;;;;;;;21.20;10.10;;;;;;;-1.02;88.44;102211.00;5097783;28;20199;-65
2023/03/28 05:39:49;;;;;;;17.67;12.80;;;;;;;-1.02;88.45;102209.22;5097814;28;20233;-65
2023/03/28 05:42:17;;;;;;;23.97;12.73;;;;;;;-0.96;88.83;102216.22;5097584;28;20678;-65
2023/03/28 05:44:43;;;;;;;33.90;15.33;;;;;;;-0.94;88.47;102212.72;5097384;28;20213;-65
2023/03/28 05:47:29;;;;;;;20.03;12.23;;;;;;;-0.97;88.18;102214.50;5116083;28;20216;-65
2023/03/28 05:49:56;;;;;;;23.07;11.93;;;;;;;-0.96;89.20;102224.13;5097316;28;20201;-65
2023/03/28 05:52:23;;;;;;;27.97;12.17;;;;;;;-0.92;88.48;102226.75;5097332;28;20195;-63
2023/03/28 05:54:50;;;;;;;15.43;11.47;;;;;;;-0.89;88.81;102224.16;5097415;28;20186;-63
2023/03/28 05:57:20;;;;;;;29.10;10.57;;;;;;;-0.89;89.49;102217.97;5115610;28;20178;-64
2023/03/28 05:59:47;;;;;;;17.50;12.50;;;;;;;-0.86;88.69;102218.88;5131375;27;20187;-64
2023/03/28 06:02:19;;;;;;;22.80;12.70;;;;;;;-0.80;88.42;102223.25;5097211;28;20220;-64
2023/03/28 06:04:45;;;;;;;27.93;12.70;;;;;;;-0.73;89.03;102214.47;5097020;28;20199;-65
2023/03/28 06:07:13;;;;;;;16.17;13.53;;;;;;;-0.67;89.66;102225.00;5097267;28;20199;-65
2023/03/28 06:09:41;;;;;;;19.27;12.63;;;;;;;-0.63;89.46;102230.25;5096709;28;20222;-65
2023/03/28 06:12:09;;;;;;;19.17;12.37;;;;;;;-0.57;89.66;102225.00;5097181;28;20614;-65
2023/03/28 06:14:41;;;;;;;24.60;13.10;;;;;;;-0.51;88.69;102219.69;5096912;28;20218;-66
2023/03/28 06:17:17;;;;;;;22.53;14.73;;;;;;;-0.43;89.59;102234.59;5096846;28;20238;-65
2023/03/28 06:19:48;;;;;;;23.53;14.03;;;;;;;-0.31;89.58;102228.44;5097594;28;20180;-65
2023/03/28 06:22:14;;;;;;;28.43;14.23;;;;;;;-0.22;89.30;102231.06;5096799;28;20261;-65
2023/03/28 06:24:44;;;;;;;27.87;13.50;;;;;;;-0.15;89.08;102236.28;5097148;28;20207;-65
2023/03/28 06:27:10;;;;;;;18.70;13.77;;;;;;;-0.03;88.20;102242.38;5096724;28;20666;-65
2023/03/28 06:29:37;;;;;;;23.03;13.73;;;;;;;0.07;87.77;102240.59;5097410;28;20538;-65
2023/03/28 06:32:04;;;;;;;24.67;13.60;;;;;;;0.11;88.35;102233.56;5114890;28;20577;-65
2023/03/28 06:34:30;;;;;;;33.53;14.77;;;;;;;0.18;88.58;102240.56;5096493;28;20263;-63
2023/03/28 06:37:00;;;;;;;29.87;15.57;;;;;;;0.28;88.05;102236.13;5096407;28;20570;-63
2023/03/28 06:39:40;;;;;;;20.83;15.43;;;;;;;0.40;87.10;102239.56;5097005;28;20588;-63
2023/03/28 06:42:07;;;;;;;28.57;14.73;;;;;;;0.50;86.52;102250.06;5096416;28;20189;-63
2023/03/28 06:44:43;;;;;;;23.47;15.77;;;;;;;0.51;87.00;102249.19;5096407;28;20219;-63
2023/03/28 06:47:17;;;;;;;25.90;16.53;;;;;;;0.59;86.19;102247.38;5096272;28;20241;-63
2023/03/28 06:49:44;;;;;;;30.87;17.00;;;;;;;0.67;86.64;102248.22;5096235;28;20585;-63
2023/03/28 06:52:33;;;;;;;25.33;14.03;;;;;;;0.79;86.90;102247.25;5114441;28;20199;-64
2023/03/28 06:55:03;;;;;;;33.80;16.13;;;;;;;0.89;85.87;102248.97;5130612;27;20207;-63
2023/03/28 06:57:30;;;;;;;26.80;14.87;;;;;;;0.89;85.84;102256.88;5096913;28;20553;-63
2023/03/28 07:00:08;;;;;;;25.07;14.73;;;;;;;1.02;85.32;102250.59;5096258;28;20196;-63
2023/03/28 07:02:53;;;;;;;27.37;15.67;;;;;;;1.06;85.14;102254.97;5114255;28;20705;-64
2023/03/28 07:05:20;;;;;;;20.70;15.43;;;;;;;1.12;83.68;102253.16;5096023;28;20196;-64
2023/03/28 07:07:46;;;;;;;20.17;14.80;;;;;;;1.26;84.45;102260.06;5096627;28;20189;-64
2023/03/28 07:10:13;;;;;;;29.53;14.90;;;;;;;1.31;83.11;102252.13;5079150;28;20224;-64
2023/03/28 07:12:40;;;;;;;24.17;14.63;;;;;;;1.38;83.09;102264.38;5095969;28;20307;-64
2023/03/28 07:15:07;;;;;;;29.30;15.23;;;;;;;1.52;83.06;102261.63;5114152;28;20242;-64
2023/03/28 07:17:33;;;;;;;22.33;14.40;;;;;;;1.62;82.26;102252.72;5095906;28;20181;-64
2023/03/28 07:20:00;;;;;;;25.20;14.93;;;;;;;1.70;82.48;102253.53;5095868;28;20199;-64
2023/03/28 07:22:27;;;;;;;25.93;15.13;;;;;;;1.82;81.95;102260.44;5095083;28;20224;-64
2023/03/28 07:24:53;;;;;;;24.47;14.93;;;;;;;1.89;81.34;102255.97;5079568;28;20193;-64
2023/03/28 07:27:20;;;;;;;37.30;12.80;;;;;;;1.92;80.61;102254.16;5095567;28;20231;-64
2023/03/28 07:29:50;;;;;;;24.50;13.43;;;;;;;1.92;80.82;102255.94;5129679;27;20238;-64
2023/03/28 07:32:17;;;;;;;42.10;14.03;;;;;;;2.02;80.29;102256.72;5095519;28;20266;-64
2023/03/28 07:34:44;;;;;;;23.93;13.27;;;;;;;2.13;79.94;102253.06;5114225;28;20245;-64
2023/03/28 07:37:16;;;;;;;25.17;12.07;;;;;;;2.27;80.33;102254.63;5098366;28;20192;-64
2023/03/28 07:39:55;;;;;;;16.60;11.33;;;;;;;2.40;79.96;102250.09;5098066;28;20181;-64
2023/03/28 07:42:23;;;;;;;16.53;11.57;;;;;;;2.56;79.90;102254.25;5079448;28;20185;-64
2023/03/28 07:44:50;;;;;;;24.03;12.70;;;;;;;2.64;79.57;102252.38;5113797;28;20607;-64
2023/03/28 07:47:17;;;;;;;21.67;11.73;;;;;;;2.73;79.00;102261.94;5129841;28;20296;-64
2023/03/28 07:49:44;;;;;;;24.93;11.53;;;;;;;2.87;77.98;102254.66;5095418;28;20266;-64
2023/03/28 07:52:12;;;;;;;23.83;11.87;;;;;;;2.86;77.69;102260.00;5113575;28;20310;-64
2023/03/28 07:54:39;;;;;;;20.47;10.80;;;;;;;3.03;77.19;102263.25;5095425;28;20217;-64
2023/03/28 07:57:06;;;;;;;21.63;12.43;;;;;;;3.16;77.19;102270.13;5095638;28;20204;-64
2023/03/28 07:59:54;;;;;;;23.20;11.03;;;;;;;3.28;76.36;102263.75;5129583;28;20184;-64
2023/03/28 08:02:21;;;;;;;21.03;10.90;;;;;;;3.35;75.92;102268.06;5095311;28;20566;-65
2023/03/28 08:04:47;;;;;;;16.87;10.60;;;;;;;3.39;76.81;102269.72;5095445;28;20193;-64
2023/03/28 08:07:19;;;;;;;20.30;10.63;;;;;;;3.59;76.10;102276.44;5096044;28;20193;-64
2023/03/28 08:09:48;;;;;;;12.67;9.30;;;;;;;3.71;76.18;102270.06;5130220;28;20220;-64
2023/03/28 08:12:21;;;;;;;30.70;10.83;;;;;;;3.88;75.43;102272.41;5095612;28;20194;-65
2023/03/28 08:14:48;;;;;;;13.23;9.90;;;;;;;3.99;74.01;102279.25;5096339;28;20199;-64
2023/03/28 08:17:20;;;;;;;16.90;10.33;;;;;;;4.02;74.70;102276.56;5095294;28;20178;-64
2023/03/28 08:19:48;;;;;;;20.27;11.10;;;;;;;4.01;73.58;102281.88;5095242;28;20286;-64
2023/03/28 08:22:26;;;;;;;17.20;9.83;;;;;;;4.03;73.24;102285.38;5113752;28;20185;-64
2023/03/28 08:25:16;;;;;;;24.80;12.40;;;;;;;4.01;74.83;102276.56;5066129;28;20225;-64
2023/03/28 08:27:43;;;;;;;17.33;11.20;;;;;;;4.17;74.22;102278.03;5094992;28;20193;-64
2023/03/28 08:30:11;;;;;;;18.70;11.03;;;;;;;4.16;73.84;102283.34;5095140;28;20213;-64
2023/03/28 08:32:48;;;;;;;33.90;12.60;;;;;;;4.38;73.11;102275.81;5095512;28;20209;-64
2023/03/28 08:35:15;;;;;;;22.40;11.23;;;;;;;4.50;72.59;102280.00;5098868;28;20280;-64
2023/03/28 08:37:42;;;;;;;18.50;11.77;;;;;;;4.54;71.22;102279.91;5099656;28;20193;-64
2023/03/28 08:40:15;;;;;;;23.40;11.17;;;;;;;4.68;71.35;102284.91;5099004;28;20223;-64
2023/03/28 08:42:54;;;;;;;16.33;8.83;;;;;;;4.65;70.46;102280.53;5099745;28;20224;-65
2023/03/28 08:45:45;;;;;;;20.67;8.73;;;;;;;4.73;70.28;102283.03;5117728;28;20264;-65
2023/03/28 08:48:33;;;;;;;7.63;6.10;;;;;;;4.88;69.78;102285.34;5098860;28;20182;-64
2023/03/28 08:51:05;;;;;;;12.63;8.10;;;;;;;4.93;70.53;102279.91;5098844;28;20185;-64
2023/03/28 08:53:40;;;;;;;13.97;7.67;;;;;;;4.89;69.65;102283.56;5099030;28;20213;-65
2023/03/28 08:56:07;;;;;;;7.70;7.00;;;;;;;4.94;69.27;102278.16;5132918;27;20258;-65
2023/03/28 08:58:48;;;;;;;11.30;8.20;;;;;;;5.20;69.34;102280.19;5098552;28;20192;-64
2023/03/28 09:01:19;;;;;;;16.53;6.73;;;;;;;5.30;67.69;102279.91;5132674;27;20181;-64
2023/03/28 09:03:48;;;;;;;6.67;5.53;;;;;;;5.42;67.94;102284.03;5117021;28;20636;-65
2023/03/28 09:06:27;;;;;;;9.67;6.97;;;;;;;5.17;66.94;102273.16;5098835;28;20206;-64
2023/03/28 09:08:57;;;;;;;7.07;6.37;;;;;;;4.99;68.44;102271.81;5098240;28;20262;-64
2023/03/28 09:11:31;;;;;;;23.17;7.03;;;;;;;5.01;68.82;102282.41;5099182;28;20182;-64
2023/03/28 09:14:35;;;;;;;9.17;3.90;;;;;;;5.24;65.39;102281.84;5098112;28;20209;-64
2023/03/28 09:17:01;;;;;;;5.53;3.27;;;;;;;5.19;64.02;102281.94;5098269;28;20181;-64
2023/03/28 09:19:53;;;;;;;4.40;3.43;;;;;;;5.06;64.44;102273.41;5098335;28;20185;-64
2023/03/28 09:23:10;;;;;;;5.13;4.90;;;;;;;4.84;66.63;102274.84;5115989;28;20220;-65
2023/03/28 09:26:22;;;;;;;12.70;4.27;;;;;;;4.99;66.06;102265.63;5116046;28;20282;-64
2023/03/28 09:29:01;;;;;;;4.87;4.47;;;;;;;5.24;65.85;102268.56;5097975;28;20213;-64
2023/03/28 09:31:36;;;;;;;4.97;4.67;;;;;;;5.14;64.54;102273.22;5097852;28;20200;-64
2023/03/28 09:34:05;;;;;;;10.43;6.70;;;;;;;5.11;66.08;102268.84;5132045;27;20205;-65
2023/03/28 09:36:43;;;;;;;6.80;6.13;;;;;;;5.15;65.08;102263.47;5098614;28;20173;-64
2023/03/28 09:39:39;;;;;;;17.87;6.00;;;;;;;5.41;66.19;102266.38;5098508;28;20203;-64
2023/03/28 09:42:16;;;;;;;14.90;6.20;;;;;;;5.38;62.44;102263.78;5098141;28;20696;-64
2023/03/28 09:44:51;;;;;;;8.10;5.23;;;;;;;5.27;63.98;102257.88;5115430;28;20304;-65
2023/03/28 09:47:49;;;;;;;10.87;6.77;;;;;;;5.28;63.50;102267.56;5060612;28;20225;-64
2023/03/28 09:50:19;;;;;;;18.50;7.80;;;;;;;5.36;65.33;102265.59;5098010;28;20594;-64
2023/03/28 09:52:50;;;;;;;8.40;5.60;;;;;;;5.44;63.90;102260.97;5132029;27;20583;-65
2023/03/28 09:55:20;;;;;;;8.67;4.77;;;;;;;5.35;61.95;102250.56;5097364;28;20202;-64
2023/03/28 09:58:10;;;;;;;18.03;4.07;;;;;;;5.64;62.24;102248.94;5097325;28;20198;-64
2023/03/28 10:00:55;;;;;;;7.03;5.07;;;;;;;5.70;59.63;102252.31;5116004;28;20677;-64
2023/03/28 10:03:51;;;;;;;8.47;3.77;;;;;;;5.85;59.36;102252.81;5115741;28;20297;-65
2023/03/28 10:06:24;;;;;;;4.73;4.40;;;;;;;6.02;57.35;102252.38;5097236;28;20197;-64
2023/03/28 10:08:51;;;;;;;3.40;3.20;;;;;;;6.17;56.67;102251.94;5097045;28;20201;-64
2023/03/28 10:11:28;;;;;;;8.67;4.40;;;;;;;6.35;55.79;102245.22;5097297;28;20199;-64
2023/03/28 10:13:55;;;;;;;9.03;6.20;;;;;;;6.39;57.25;102247.75;5097012;28;20217;-65
2023/03/28 10:16:27;;;;;;;3.90;3.50;;;;;;;6.43;56.37;102237.88;5097036;28;20212;-65
2023/03/28 10:19:02;;;;;;;4.90;4.70;;;;;;;6.55;55.98;102247.28;5096962;28;20214;-65
2023/03/28 10:21:55;;;;;;;9.80;7.60;;;;;;;6.58;55.02;102249.84;5111081;28;20605;-65
2023/03/28 10:24:25;;;;;;;6.20;5.63;;;;;;;6.57;55.19;102240.97;5097580;28;20212;-65
2023/03/28 10:27:16;;;;;;;3.93;3.73;;;;;;;6.67;55.24;102240.69;5096551;28;20205;-65
2023/03/28 10:29:45;;;;;;;10.97;3.93;;;;;;;6.83;55.62;102236.66;5096606;28;20230;-65
2023/03/28 10:32:23;;;;;;;3.83;3.47;;;;;;;7.00;54.62;102228.09;5096640;28;20181;-65
2023/03/28 10:35:22;;;;;;;4.93;2.80;;;;;;;7.07;52.52;102234.97;5096884;28;20215;-65
2023/03/28 10:38:03;;;;;;;4.27;3.97;;;;;;;6.96;49.33;102232.66;5096826;28;20640;-65
2023/03/28 10:40:59;;;;;;;4.57;4.27;;;;;;;7.07;51.65;102226.13;5115045;28;20254;-65
2023/03/28 10:43:44;;;;;;;4.73;3.77;;;;;;;7.26;51.20;102218.38;5096419;28;20262;-65
2023/03/28 10:46:25;;;;;;;9.43;5.13;;;;;;;7.48;50.44;102211.38;5096731;28;20671;-65
2023/03/28 10:49:17;;;;;;;3.87;3.67;;;;;;;7.69;49.52;102209.75;5106535;28;20216;-64
2023/03/28 10:51:54;;;;;;;6.57;3.20;;;;;;;8.07;52.44;102204.81;5096360;28;20184;-64
2023/03/28 10:54:49;;;;;;;5.63;3.00;;;;;;;7.95;53.02;102195.47;5096300;28;20216;-65
2023/03/28 10:57:45;;;;;;;3.30;3.10;;;;;;;7.98;48.42;102195.34;5095340;28;20193;-65
2023/03/28 11:00:24;;;;;;;3.60;3.33;;;;;;;8.12;48.70;102193.94;5114743;28;20576;-65
2023/03/28 11:03:01;;;;;;;4.30;3.87;;;;;;;8.18;47.38;102191.06;5096515;28;20209;-65
2023/03/28 11:05:42;;;;;;;3.07;2.87;;;;;;;8.02;47.19;102193.44;5097008;28;20189;-64
2023/03/28 11:08:31;;;;;;;3.60;3.33;;;;;;;7.77;47.82;102185.47;5130876;27;20205;-64
2023/03/28 11:11:08;;;;;;;13.77;4.20;;;;;;;7.70;47.13;102179.50;5096106;28;20230;-65
2023/03/28 11:13:54;;;;;;;3.50;3.33;;;;;;;7.65;47.99;102178.78;5095931;28;20209;-65
2023/03/28 11:16:30;;;;;;;4.00;3.23;;;;;;;7.80;49.72;102177.34;5096554;28;20254;-65
2023/03/28 11:19:33;;;;;;;5.13;3.53;;;;;;;7.88;49.95;102170.81;5095954;28;20177;-65
2023/03/28 11:22:33;;;;;;;4.40;4.03;;;;;;;8.10;49.36;102170.88;5096100;28;20217;-65
2023/03/28 11:25:18;;;;;;;3.40;3.30;;;;;;;8.08;46.63;102162.06;5095701;28;20662;-65
2023/03/28 11:28:32;;;;;;;4.30;3.53;;;;;;;8.06;47.20;102157.72;5058775;28;20206;-65
2023/03/28 11:31:14;;;;;;;5.23;4.07;;;;;;;8.27;47.01;102154.22;5096135;28;20674;-65
2023/03/28 11:33:59;;;;;;;6.57;3.73;;;;;;;8.29;45.09;102146.16;5129684;27;20677;-65
2023/03/28 11:36:41;;;;;;;4.50;2.80;;;;;;;8.44;45.97;102142.91;5096462;28;20181;-65
2023/03/28 11:39:31;;;;;;;7.03;3.23;;;;;;;8.59;47.09;102127.19;5095570;28;20184;-65
2023/03/28 11:42:03;;;;;;;9.43;3.93;;;;;;;8.35;45.70;102129.88;5095663;28;20193;-65
2023/03/28 11:44:45;;;;;;;5.77;3.50;;;;;;;8.58;47.43;102118.31;5096324;28;20634;-65
2023/03/28 11:47:20;;;;;;;8.93;3.47;;;;;;;8.74;46.16;102113.22;5096196;28;20189;-65
2023/03/28 11:50:27;;;;;;;3.43;3.27;;;;;;;9.14;45.62;102112.38;5095991;28;20216;-65
2023/03/28 11:53:08;;;;;;;3.43;2.97;;;;;;;9.14;44.73;102108.84;5128469;28;20213;-65
2023/03/28 11:56:00;;;;;;;10.27;3.20;;;;;;;9.12;44.77;102114.25;5096478;28;20177;-65
2023/03/28 11:58:51;;;;;;;2.57;2.47;;;;;;;9.11;46.44;102107.16;5114255;28;20177;-65
2023/03/28 12:01:21;;;;;;;2.23;2.13;;;;;;;9.26;44.70;102094.91;5095946;28;20186;-65
2023/03/28 12:04:01;;;;;;;2.03;1.93;;;;;;;9.28;43.79;102085.03;5095225;28;20209;-65